Fort Walton Beach, FL (32547)

10:56 AM CST on February 21, 2017 (GMT -0600)
Choctawhatchee High School WeatherSTEM | | Change Station

Elev 52 ft 30.45 °N, 86.62 °W | Updated 1 minute ago

Rain
Rain
63.8 °F
Feels Like 63.8 °F
N
5.0
Wind Variable Wind from NNW

Today
High -- | Low -- °F
--% Chance of Precip.
Yesterday
High -- | Low -- °F
Precip. -- in
Pressure 29.98 in
Visibility 1.8 miles
Clouds Few 800 ft
Overcast 1800 ft
Dew Point 63 °F
Humidity 97%
Rainfall 1.03 in
Snow Depth Not available.
6:20 AM 5:39 PM
Waning Crescent, 24% visible
SPECI KHRT 211643Z 34011KT 1 3/4SM +RA BR FEW008 OVC018 17/16 A2997 RMK AO2A VIS 1V1 3/4 CIG 014V018 CIG 002 RWY18 SLP151 $
Pressure 29.98 in
Visibility 1.8 miles
Clouds Few 800 ft
Overcast 1800 ft
Dew Point 63 °F
Humidity 97%
Rainfall 1.03 in
Snow Depth Not available.
6:20 AM 5:39 PM
Waning Crescent, 24% visible
SPECI KHRT 211643Z 34011KT 1 3/4SM +RA BR FEW008 OVC018 17/16 A2997 RMK AO2A VIS 1V1 3/4 CIG 014V018 CIG 002 RWY18 SLP151 $

Get Your Daily Forecast Email!

Thanks for signing up!

Be on the lookout for a verification email in your inbox.

You'll start receiving the daily forecast at 8 AM.

×

10-Day Weather Forecast

Almanac

Astronomy

Feb. 21, 2017 Rise Set
Actual Time
Civil Twilight
Nautical Twilight
Astronomical Twilight
Moon
Length of Visible Light
Length of Day
Tomorrow will be .
, % of the Moon is Illuminated

Today's Extremes

State Highs State Lows

Community

WunderPhotos

Upload Photos

1,962,540 photos uploaded!

WunderBlog® & News

Nearby

Air Quality

  Air Quality AQ Index Pollutant
Not available.

Snow Depth

Station Depth Elevation

Earthquake Activity

City Distance Mag. Time & Date
Minimum magnitude displayed is 2.5.

Coastal Water Temperatures

Place Temperature

Stations

Nearby Weather Stations

Station Location Temp. Windchill Dew Point Humidity Wind Precip. Elev Updated Type
                   

Watches & Warnings

There are currently no watches in effect.